Time;durP1;ratioP1;P1;durP2;ratioP2;P2;SDS_P1;SDS_P2;PMS_P1;PMS_P2;Temp;Humidity;BMP_temperature;BMP_pressure;BME280_temperature;BME280_humidity;BME280_pressure;Samples;Min_cycle;Max_cycle;Signal;HPM_P1;HPM_P2
2023/11/22 00:00:10;;;;;;;4.88;2.67;;;2.60;99.90;;;;;;4991894;28;20031;-83
2023/11/22 00:02:37;;;;;;;6.22;2.92;;;2.50;99.90;;;;;;4986243;28;20038;-82
2023/11/22 00:05:03;;;;;;;6.07;3.33;;;2.40;99.90;;;;;;4998221;28;20038;-86
2023/11/22 00:07:29;;;;;;;5.78;3.22;;;2.50;99.90;;;;;;4985978;28;20026;-86
2023/11/22 00:09:55;;;;;;;6.13;3.13;;;2.50;99.90;;;;;;4965612;28;20540;-84
2023/11/22 00:12:22;;;;;;;4.30;2.60;;;2.40;99.90;;;;;;4994524;28;20068;-85
2023/11/22 00:14:48;;;;;;;5.05;2.55;;;2.40;99.90;;;;;;4982191;28;20034;-82
2023/11/22 00:17:17;;;;;;;5.00;3.08;;;2.40;99.90;;;;;;4992808;28;20041;-81
2023/11/22 00:19:44;;;;;;;5.63;2.30;;;2.30;99.90;;;;;;4976668;28;20045;-83
2023/11/22 00:22:14;;;;;;;5.03;2.50;;;2.20;99.90;;;;;;4965525;28;20105;-84
2023/11/22 00:24:41;;;;;;;5.47;3.00;;;2.20;99.90;;;;;;4978452;28;20049;-81
2023/11/22 00:27:07;;;;;;;4.03;2.05;;;2.10;99.90;;;;;;4981631;28;20426;-82
2023/11/22 00:29:33;;;;;;;3.80;2.28;;;2.10;99.90;;;;;;4968145;28;20126;-83
2023/11/22 00:31:59;;;;;;;4.43;2.70;;;2.10;99.90;;;;;;4992453;28;20043;-82
2023/11/22 00:34:26;;;;;;;4.28;2.40;;;2.10;99.90;;;;;;4966871;28;20030;-83
2023/11/22 00:36:52;;;;;;;4.38;2.45;;;2.00;99.90;;;;;;4998455;28;20069;-84
2023/11/22 00:39:18;;;;;;;5.68;2.50;;;2.00;99.90;;;;;;4994681;28;20038;-83
2023/11/22 00:41:44;;;;;;;3.58;1.65;;;2.00;99.90;;;;;;4993578;28;20033;-81
2023/11/22 00:44:11;;;;;;;3.67;1.77;;;2.10;99.90;;;;;;4977251;28;20038;-82
2023/11/22 00:46:39;;;;;;;4.38;1.88;;;2.20;99.90;;;;;;4981094;28;20062;-82
2023/11/22 00:49:05;;;;;;;4.97;2.28;;;2.20;99.90;;;;;;4980236;28;20109;-82
2023/11/22 00:51:33;;;;;;;4.70;2.38;;;2.10;99.90;;;;;;4987749;28;20030;-83
2023/11/22 00:53:59;;;;;;;4.05;2.03;;;2.20;99.90;;;;;;4981168;28;20031;-83
2023/11/22 00:56:25;;;;;;;4.53;2.15;;;2.20;99.90;;;;;;4977561;28;20488;-84
2023/11/22 00:58:53;;;;;;;4.03;2.03;;;2.20;99.90;;;;;;4977931;28;20042;-82
2023/11/22 01:01:19;;;;;;;4.28;2.17;;;2.10;99.90;;;;;;4976602;28;20049;-81
2023/11/22 01:03:46;;;;;;;3.97;1.77;;;2.00;99.90;;;;;;4968842;28;20471;-82
2023/11/22 01:06:13;;;;;;;3.88;2.03;;;2.10;99.90;;;;;;4994041;28;20426;-82
2023/11/22 01:08:39;;;;;;;4.68;2.38;;;2.10;99.90;;;;;;4977250;28;20034;-82
2023/11/22 01:11:05;;;;;;;3.78;1.75;;;2.10;99.90;;;;;;4979602;28;20076;-81
2023/11/22 01:13:40;;;;;;;3.58;1.92;;;2.10;99.90;;;;;;4981777;28;20026;-81
2023/11/22 01:16:10;;;;;;;2.80;1.35;;;2.10;99.90;;;;;;4976184;28;20378;-84
2023/11/22 01:18:36;;;;;;;4.78;2.50;;;2.10;99.90;;;;;;4979460;28;20039;-82
2023/11/22 01:21:03;;;;;;;5.70;2.90;;;2.30;99.90;;;;;;4986501;28;20122;-82
2023/11/22 01:23:31;;;;;;;5.97;3.63;;;2.20;99.90;;;;;;4984463;28;20065;-82
2023/11/22 01:25:58;;;;;;;5.55;3.30;;;2.30;99.90;;;;;;4966304;28;20058;-82
2023/11/22 01:28:24;;;;;;;6.15;3.00;;;2.20;99.90;;;;;;4982742;28;20034;-82
2023/11/22 01:30:50;;;;;;;4.15;2.50;;;2.20;99.90;;;;;;4977770;28;20049;-83
2023/11/22 01:33:15;;;;;;;4.63;1.67;;;2.20;99.90;;;;;;4971111;28;20117;-82
2023/11/22 01:35:41;;;;;;;5.45;3.40;;;2.20;99.90;;;;;;4985523;28;20057;-84
2023/11/22 01:38:07;;;;;;;4.72;2.33;;;2.20;99.90;;;;;;4964937;28;20047;-84
2023/11/22 01:40:34;;;;;;;5.18;2.42;;;2.20;99.90;;;;;;4992423;28;20035;-81
2023/11/22 01:43:00;;;;;;;2.85;1.55;;;2.20;99.90;;;;;;4996146;28;20045;-84
2023/11/22 01:45:26;;;;;;;4.32;2.25;;;2.10;99.90;;;;;;4968718;28;20092;-83
2023/11/22 01:47:52;;;;;;;4.18;2.17;;;2.10;99.90;;;;;;4983882;28;20035;-83
2023/11/22 01:50:18;;;;;;;5.50;2.60;;;2.10;99.90;;;;;;4990977;28;20030;-85
2023/11/22 01:52:45;;;;;;;4.72;1.83;;;2.10;99.90;;;;;;4997954;28;20050;-84
2023/11/22 01:55:13;;;;;;;3.88;2.42;;;2.00;99.90;;;;;;4985423;28;20026;-85
2023/11/22 01:57:39;;;;;;;4.60;2.22;;;2.00;99.90;;;;;;4988923;28;20065;-86
2023/11/22 02:00:14;;;;;;;4.55;2.10;;;2.00;99.90;;;;;;4983325;28;20065;-84
2023/11/22 02:02:42;;;;;;;5.22;3.03;;;2.00;99.90;;;;;;4984319;28;20023;-84
2023/11/22 02:05:08;;;;;;;4.95;2.47;;;2.10;99.90;;;;;;4989872;28;20356;-84
2023/11/22 02:07:34;;;;;;;4.55;2.42;;;2.00;99.90;;;;;;5002722;28;20030;-84
2023/11/22 02:10:00;;;;;;;5.28;2.45;;;1.90;99.90;;;;;;4984071;28;20080;-88
2023/11/22 02:12:25;;;;;;;5.60;3.00;;;1.90;99.90;;;;;;4988372;28;20173;-83
2023/11/22 02:14:51;;;;;;;5.50;2.55;;;1.90;99.90;;;;;;4999393;28;20048;-82
2023/11/22 02:17:17;;;;;;;7.97;3.15;;;1.90;99.90;;;;;;4973054;28;20031;-84
2023/11/22 02:19:43;;;;;;;4.43;2.00;;;1.80;99.90;;;;;;4998274;28;20410;-83
2023/11/22 02:22:12;;;;;;;5.60;2.73;;;1.80;99.90;;;;;;4997638;28;20037;-84
2023/11/22 02:24:38;;;;;;;4.40;1.98;;;1.90;99.90;;;;;;4986121;28;20038;-82
2023/11/22 02:27:03;;;;;;;4.68;2.10;;;1.90;99.90;;;;;;4980791;28;20022;-84
2023/11/22 02:29:29;;;;;;;3.75;1.63;;;1.90;99.90;;;;;;5000961;28;20653;-83
2023/11/22 02:31:55;;;;;;;3.90;1.75;;;1.80;99.90;;;;;;5000593;28;20031;-84
2023/11/22 02:34:20;;;;;;;3.55;1.38;;;1.70;99.90;;;;;;4972790;28;20025;-83
2023/11/22 02:36:47;;;;;;;3.90;1.55;;;1.60;99.90;;;;;;4986736;28;20479;-85
2023/11/22 02:39:14;;;;;;;3.28;1.25;;;1.60;99.90;;;;;;4985187;28;20581;-84
2023/11/22 02:41:39;;;;;;;3.30;1.38;;;1.60;99.90;;;;;;4986509;28;20110;-83
2023/11/22 02:44:08;;;;;;;10.63;3.22;;;1.50;99.90;;;;;;4988228;28;20121;-83
2023/11/22 02:46:33;;;;;;;5.53;1.60;;;1.40;99.90;;;;;;4968809;28;20026;-82
2023/11/22 02:48:59;;;;;;;4.10;1.73;;;1.40;99.90;;;;;;4981841;28;20026;-82
2023/11/22 02:51:25;;;;;;;4.35;1.83;;;1.30;99.90;;;;;;4988037;28;20029;-83
2023/11/22 02:53:52;;;;;;;3.10;1.40;;;1.30;99.90;;;;;;4984782;28;20039;-85
2023/11/22 02:56:18;;;;;;;2.95;1.15;;;1.40;99.90;;;;;;4987782;28;20023;-84
2023/11/22 02:58:44;;;;;;;4.00;1.65;;;1.40;99.90;;;;;;4994826;28;20794;-83
2023/11/22 03:01:10;;;;;;;3.45;1.33;;;1.50;99.90;;;;;;4988230;28;20036;-83
2023/11/22 03:03:35;;;;;;;4.50;1.85;;;1.40;99.90;;;;;;4985264;28;20121;-84
2023/11/22 03:06:01;;;;;;;4.40;1.92;;;1.40;99.90;;;;;;4981865;28;20026;-83
2023/11/22 03:08:27;;;;;;;4.20;1.95;;;1.40;99.90;;;;;;4983863;28;20034;-83
2023/11/22 03:10:53;;;;;;;5.20;2.00;;;1.50;99.90;;;;;;4995810;28;20022;-83
2023/11/22 03:13:19;;;;;;;5.28;2.33;;;1.50;99.90;;;;;;4978364;28;20070;-84
2023/11/22 03:15:45;;;;;;;3.78;1.52;;;1.30;99.90;;;;;;4995408;28;20034;-84
2023/11/22 03:18:11;;;;;;;3.55;1.30;;;1.30;99.90;;;;;;4967545;28;20071;-83
2023/11/22 03:20:37;;;;;;;4.20;1.88;;;1.30;99.90;;;;;;4995137;28;20026;-86
2023/11/22 03:23:04;;;;;;;4.88;2.08;;;1.30;99.90;;;;;;4983903;28;20035;-84
2023/11/22 03:25:30;;;;;;;4.45;2.00;;;1.40;99.90;;;;;;5002619;28;20026;-83
2023/11/22 03:27:56;;;;;;;4.35;2.03;;;1.40;99.90;;;;;;4969734;28;20033;-84
2023/11/22 03:30:22;;;;;;;5.30;2.10;;;1.50;99.90;;;;;;4996376;28;20398;-85
2023/11/22 03:32:49;;;;;;;5.32;2.10;;;1.40;99.90;;;;;;4976459;28;20018;-83
2023/11/22 03:35:16;;;;;;;3.95;1.65;;;1.40;99.90;;;;;;4984072;28;20061;-82
2023/11/22 03:37:42;;;;;;;4.55;2.03;;;1.40;99.90;;;;;;4982800;28;20085;-85
2023/11/22 03:40:09;;;;;;;4.05;1.67;;;1.40;99.90;;;;;;4992204;28;20034;-85
2023/11/22 03:42:37;;;;;;;4.60;1.77;;;1.30;99.90;;;;;;4981620;28;20161;-81
2023/11/22 03:45:04;;;;;;;3.78;1.52;;;1.40;99.90;;;;;;4995627;28;20037;-82
2023/11/22 03:47:29;;;;;;;7.55;2.20;;;1.40;99.90;;;;;;4995603;28;20162;-85
2023/11/22 03:49:55;;;;;;;5.10;2.10;;;1.20;99.90;;;;;;4984858;28;20033;-83
2023/11/22 03:52:21;;;;;;;3.88;1.70;;;1.10;99.90;;;;;;4986605;28;20027;-82
2023/11/22 03:54:47;;;;;;;4.80;2.13;;;1.10;99.90;;;;;;4984887;28;20117;-83
2023/11/22 03:57:12;;;;;;;3.50;1.50;;;1.10;99.90;;;;;;4987321;28;20048;-82
2023/11/22 03:59:41;;;;;;;3.97;1.67;;;1.10;99.90;;;;;;4999890;28;20390;-84
2023/11/22 04:02:07;;;;;;;3.80;1.70;;;1.00;99.90;;;;;;4984488;28;20558;-84
2023/11/22 04:04:32;;;;;;;4.82;1.85;;;1.10;99.90;;;;;;4989193;28;20038;-83
2023/11/22 04:06:58;;;;;;;4.28;2.17;;;0.90;99.90;;;;;;4984398;28;20397;-83
2023/11/22 04:09:24;;;;;;;5.10;1.15;;;0.90;99.90;;;;;;4979561;28;20493;-82
2023/11/22 04:11:49;;;;;;;3.72;1.33;;;0.90;99.90;;;;;;4979754;28;20027;-87
2023/11/22 04:14:15;;;;;;;4.28;1.80;;;0.90;99.90;;;;;;4980478;28;20054;-83
2023/11/22 04:16:41;;;;;;;3.92;1.45;;;0.80;99.90;;;;;;4983473;28;20102;-85
2023/11/22 04:19:06;;;;;;;4.25;1.85;;;0.80;99.90;;;;;;4978084;28;20085;-82
2023/11/22 04:21:32;;;;;;;3.92;1.63;;;0.80;99.90;;;;;;4983286;28;20110;-82
2023/11/22 04:23:58;;;;;;;3.45;1.58;;;1.00;99.90;;;;;;4986793;28;20046;-82
2023/11/22 04:26:24;;;;;;;4.00;1.10;;;1.00;99.90;;;;;;4998500;28;20043;-83
2023/11/22 04:28:50;;;;;;;4.40;1.80;;;0.90;99.90;;;;;;4971587;28;20262;-82
2023/11/22 04:31:16;;;;;;;3.47;1.65;;;0.90;99.90;;;;;;4999985;28;20026;-83
2023/11/22 04:33:41;;;;;;;4.38;2.08;;;0.90;99.90;;;;;;4986021;28;20022;-91
2023/11/22 04:36:07;;;;;;;4.30;1.85;;;0.90;99.90;;;;;;4985789;28;20085;-84
2023/11/22 04:38:34;;;;;;;4.35;1.70;;;0.70;99.90;;;;;;4966953;28;20047;-82
2023/11/22 04:40:59;;;;;;;3.05;1.42;;;0.60;99.90;;;;;;4978361;28;20033;-83
2023/11/22 04:43:25;;;;;;;3.70;1.73;;;0.60;99.90;;;;;;4985877;28;20030;-84
2023/11/22 04:45:51;;;;;;;5.28;2.13;;;0.50;99.90;;;;;;4965258;28;20208;-84
2023/11/22 04:48:17;;;;;;;4.75;1.90;;;0.60;99.90;;;;;;4987455;28;20135;-86
2023/11/22 04:50:42;;;;;;;3.38;1.20;;;0.60;99.90;;;;;;4983656;28;20041;-85
2023/11/22 04:53:09;;;;;;;4.30;1.67;;;0.70;99.90;;;;;;4981846;28;20030;-83
2023/11/22 04:55:35;;;;;;;3.38;1.50;;;0.50;99.90;;;;;;4998688;28;20030;-82
2023/11/22 04:58:01;;;;;;;3.80;1.67;;;0.60;99.90;;;;;;4988185;28;20049;-84
2023/11/22 05:00:27;;;;;;;5.07;1.92;;;0.60;99.90;;;;;;4971074;28;20033;-82
2023/11/22 05:02:54;;;;;;;5.25;2.17;;;0.50;99.90;;;;;;4996525;28;20034;-86
2023/11/22 05:05:20;;;;;;;4.18;1.60;;;0.50;99.90;;;;;;4971660;28;20038;-89
2023/11/22 05:07:45;;;;;;;3.92;1.60;;;0.50;99.90;;;;;;5001191;28;20041;-84
2023/11/22 05:10:11;;;;;;;3.55;1.17;;;0.40;99.90;;;;;;4975926;28;20061;-84
2023/11/22 05:12:37;;;;;;;3.83;1.40;;;0.40;99.90;;;;;;4987923;28;20039;-90
2023/11/22 05:15:03;;;;;;;4.80;1.88;;;0.30;99.90;;;;;;4987793;28;20045;-83
2023/11/22 05:17:29;;;;;;;4.45;1.83;;;0.20;99.90;;;;;;4994662;28;20045;-84
2023/11/22 05:19:55;;;;;;;5.68;2.22;;;0.20;99.90;;;;;;4979408;28;20038;-85
2023/11/22 05:22:20;;;;;;;4.18;1.35;;;0.10;99.90;;;;;;5000677;28;20030;-83
2023/11/22 05:24:46;;;;;;;4.65;1.73;;;0.10;99.90;;;;;;4990661;28;20035;-85
2023/11/22 05:27:12;;;;;;;3.83;1.35;;;0.20;99.90;;;;;;4990251;28;20030;-84
2023/11/22 05:29:38;;;;;;;4.82;2.08;;;0.10;99.90;;;;;;4988390;28;20035;-85
2023/11/22 05:32:04;;;;;;;4.35;2.13;;;0.10;99.90;;;;;;4989424;28;20033;-88
2023/11/22 05:34:30;;;;;;;4.45;1.70;;;0.10;99.90;;;;;;4983807;28;20471;-84
2023/11/22 05:36:55;;;;;;;3.58;1.20;;;0.00;99.90;;;;;;4987742;28;20109;-82
2023/11/22 05:39:24;;;;;;;3.97;1.30;;;0.10;99.90;;;;;;4982224;28;20034;-83
2023/11/22 05:41:51;;;;;;;3.55;1.70;;;0.20;99.90;;;;;;4983508;28;20029;-82
2023/11/22 05:44:17;;;;;;;4.18;1.40;;;0.30;99.90;;;;;;5012532;23;20053;-83
2023/11/22 05:46:43;;;;;;;3.80;1.42;;;0.30;99.90;;;;;;5006313;28;20120;-83
2023/11/22 05:49:10;;;;;;;3.03;1.27;;;0.30;99.90;;;;;;5009785;28;20053;-83
2023/11/22 05:51:37;;;;;;;3.05;0.93;;;0.40;99.90;;;;;;5022910;28;20034;-82
2023/11/22 05:54:03;;;;;;;3.22;1.20;;;0.40;99.90;;;;;;5012318;28;20104;-82
2023/11/22 05:56:29;;;;;;;3.88;1.20;;;0.40;99.90;;;;;;5022053;28;20042;-83
2023/11/22 05:58:55;;;;;;;3.63;1.60;;;0.30;99.90;;;;;;5010048;28;20094;-82
2023/11/22 06:01:20;;;;;;;3.72;1.40;;;0.30;99.90;;;;;;5029099;28;20029;-82
2023/11/22 06:03:46;;;;;;;3.55;1.20;;;0.40;99.90;;;;;;5023307;28;20482;-83
2023/11/22 06:06:14;;;;;;;3.58;1.33;;;0.30;99.90;;;;;;5008137;28;20025;-82
2023/11/22 06:08:40;;;;;;;3.30;1.30;;;0.40;99.90;;;;;;5012156;28;20269;-81
2023/11/22 06:11:07;;;;;;;3.92;1.35;;;0.40;99.90;;;;;;5024750;28;20330;-82
2023/11/22 06:13:33;;;;;;;4.65;1.52;;;0.50;99.90;;;;;;5024891;28;20503;-81
2023/11/22 06:15:58;;;;;;;3.10;1.20;;;0.50;99.90;;;;;;5011220;28;20041;-82
2023/11/22 06:18:29;;;;;;;4.38;1.63;;;0.50;99.90;;;;;;5026048;28;20037;-82
2023/11/22 06:20:56;;;;;;;3.55;1.30;;;0.50;99.90;;;;;;5036494;28;20026;-82
2023/11/22 06:23:22;;;;;;;3.67;1.20;;;0.50;99.90;;;;;;5011246;28;20035;-83
2023/11/22 06:25:48;;;;;;;3.67;1.70;;;0.50;99.90;;;;;;5002356;28;20026;-81
2023/11/22 06:28:14;;;;;;;4.35;1.90;;;0.50;99.90;;;;;;5037518;28;20029;-82
2023/11/22 06:30:39;;;;;;;4.10;1.30;;;0.30;99.90;;;;;;5017030;28;20030;-84
2023/11/22 06:33:05;;;;;;;3.67;1.20;;;0.40;99.90;;;;;;5036209;28;20041;-83
2023/11/22 06:35:31;;;;;;;3.85;1.25;;;0.50;99.90;;;;;;5040840;28;20026;-86
2023/11/22 06:37:58;;;;;;;3.25;1.23;;;0.50;99.90;;;;;;4966252;28;20158;-88
2023/11/22 06:40:23;;;;;;;4.07;1.70;;;0.40;99.90;;;;;;4991647;28;20313;-90
2023/11/22 06:42:49;;;;;;;3.70;1.58;;;0.40;99.90;;;;;;4989854;28;20060;-84
2023/11/22 06:45:16;;;;;;;4.15;1.67;;;0.60;99.90;;;;;;5004906;28;20553;-81
2023/11/22 06:47:42;;;;;;;3.03;1.17;;;0.50;99.90;;;;;;4989551;28;20040;-86
2023/11/22 06:50:09;;;;;;;3.90;1.42;;;0.50;99.90;;;;;;4991522;28;20165;-83
2023/11/22 06:52:36;;;;;;;4.68;1.63;;;0.70;99.90;;;;;;5010270;28;20038;-84
2023/11/22 06:55:02;;;;;;;3.42;1.20;;;0.50;99.90;;;;;;5027090;28;20113;-83
2023/11/22 06:57:28;;;;;;;4.70;1.80;;;0.50;99.90;;;;;;5018371;28;20030;-84
2023/11/22 06:59:58;;;;;;;4.20;1.48;;;0.60;99.90;;;;;;5020776;28;20030;-84
2023/11/22 07:02:24;;;;;;;3.53;1.50;;;0.60;99.90;;;;;;5018956;28;20109;-83
2023/11/22 07:04:50;;;;;;;3.92;1.20;;;0.70;99.90;;;;;;5002528;28;20037;-83
2023/11/22 07:07:15;;;;;;;3.67;1.50;;;0.70;99.90;;;;;;5017528;28;20030;-85
2023/11/22 07:09:44;;;;;;;4.25;1.50;;;0.50;99.90;;;;;;5013026;28;20026;-85
2023/11/22 07:12:10;;;;;;;3.60;1.35;;;0.50;99.90;;;;;;5015181;28;20285;-84
2023/11/22 07:14:36;;;;;;;3.55;1.48;;;0.60;99.90;;;;;;5015291;28;20105;-82
2023/11/22 07:17:03;;;;;;;4.60;1.23;;;0.90;99.90;;;;;;5017224;28;20125;-87
2023/11/22 07:19:28;;;;;;;5.28;1.90;;;1.00;99.90;;;;;;5030838;28;20034;-84
2023/11/22 07:21:54;;;;;;;3.55;1.33;;;1.00;99.90;;;;;;5007047;28;20037;-85
2023/11/22 07:24:20;;;;;;;3.67;1.60;;;0.90;99.90;;;;;;5026887;28;20091;-83
2023/11/22 07:26:47;;;;;;;3.90;1.67;;;1.10;99.90;;;;;;4999611;28;20081;-85
2023/11/22 07:29:12;;;;;;;5.45;1.52;;;1.20;99.90;;;;;;5014932;28;20030;-85
2023/11/22 07:31:42;;;;;;;3.65;1.50;;;1.20;99.90;;;;;;5016056;28;20038;-82
2023/11/22 07:34:11;;;;;;;4.63;1.55;;;1.20;99.90;;;;;;5010746;28;20049;-88
2023/11/22 07:36:38;;;;;;;3.88;1.60;;;1.30;99.90;;;;;;5012623;28;20042;-86
2023/11/22 07:39:04;;;;;;;4.95;1.67;;;1.30;99.90;;;;;;5015714;28;20041;-84
2023/11/22 07:41:31;;;;;;;4.25;1.65;;;1.40;99.90;;;;;;5019965;28;20034;-82
2023/11/22 07:43:58;;;;;;;6.18;2.58;;;1.40;99.90;;;;;;5002664;28;20058;-83
2023/11/22 07:46:23;;;;;;;5.68;2.45;;;1.50;99.90;;;;;;5002964;28;20541;-84
2023/11/22 07:48:49;;;;;;;5.45;2.50;;;1.50;99.90;;;;;;5002084;28;20050;-86
2023/11/22 07:51:16;;;;;;;5.20;2.70;;;1.60;99.90;;;;;;5017378;28;20030;-83
2023/11/22 07:53:43;;;;;;;5.80;2.40;;;1.50;99.90;;;;;;5019714;28;20025;-81
2023/11/22 07:56:09;;;;;;;5.45;2.33;;;1.60;99.90;;;;;;5002598;28;20037;-82
2023/11/22 07:58:35;;;;;;;6.03;2.55;;;1.60;99.90;;;;;;5004857;28;20034;-89
2023/11/22 08:01:04;;;;;;;5.20;2.40;;;1.70;99.90;;;;;;5009300;28;20451;-87
2023/11/22 08:03:29;;;;;;;4.97;2.30;;;1.70;99.90;;;;;;4992222;28;20116;-90
2023/11/22 08:05:55;;;;;;;6.35;3.03;;;1.70;99.90;;;;;;5008528;28;20056;-88
2023/11/22 08:08:25;;;;;;;4.95;2.20;;;1.80;99.90;;;;;;4994612;28;20545;-89
2023/11/22 08:10:56;;;;;;;;;;;1.80;99.90;;;;;;5010570;28;20037;-93
2023/11/22 08:13:25;;;;;;;4.15;1.83;;;1.90;99.90;;;;;;5007900;28;19910;-91
2023/11/22 08:15:51;;;;;;;4.50;1.95;;;1.90;99.90;;;;;;4991457;28;20083;-90
2023/11/22 08:18:17;;;;;;;6.32;2.28;;;1.90;99.90;;;;;;4990401;28;20037;-92
2023/11/22 08:20:44;;;;;;;5.45;2.50;;;2.10;99.90;;;;;;4996591;28;20494;-87
2023/11/22 08:23:11;;;;;;;6.20;2.50;;;2.10;99.90;;;;;;5018463;28;20038;-85
2023/11/22 08:25:38;;;;;;;5.32;2.67;;;2.20;99.90;;;;;;5015342;28;20061;-85
2023/11/22 08:28:06;;;;;;;7.03;3.20;;;2.00;99.90;;;;;;5008617;28;20030;-85
2023/11/22 08:30:35;;;;;;;6.90;2.63;;;2.20;99.90;;;;;;5008791;28;20125;-87
2023/11/22 08:33:02;;;;;;;5.95;2.70;;;2.30;99.90;;;;;;5007969;28;20087;-85
2023/11/22 08:35:28;;;;;;;5.05;2.03;;;2.30;99.90;;;;;;4994764;28;20022;-85
2023/11/22 08:37:54;;;;;;;6.65;3.25;;;2.30;99.90;;;;;;5007330;28;20041;-86
2023/11/22 08:40:20;;;;;;;6.50;3.50;;;2.50;99.90;;;;;;5008504;28;20059;-89
2023/11/22 08:42:49;;;;;;;7.55;3.60;;;2.50;99.90;;;;;;4994491;28;20058;-90
2023/11/22 08:45:15;;;;;;;6.85;3.30;;;2.60;99.90;;;;;;4991812;28;20402;-87
2023/11/22 08:47:41;;;;;;;6.90;3.22;;;2.80;99.90;;;;;;5008404;28;20040;-94
2023/11/22 08:50:10;;;;;;;6.53;3.65;;;2.80;99.90;;;;;;5008164;28;20121;-93
2023/11/22 08:52:38;;;;;;;6.68;3.70;;;2.90;99.90;;;;;;5009487;28;20053;-94
2023/11/22 08:55:07;;;;;;;7.15;3.42;;;3.00;99.90;;;;;;5005015;28;20497;-89
2023/11/22 08:57:40;;;;;;;7.97;4.20;;;3.10;99.90;;;;;;4987063;28;20072;-93
2023/11/22 09:00:09;;;;;;;6.45;3.70;;;3.20;99.90;;;;;;5002213;28;20057;-87
2023/11/22 09:02:36;;;;;;;6.90;3.70;;;3.20;99.90;;;;;;5001402;28;20478;-87
2023/11/22 09:05:06;;;;;;;7.25;4.03;;;3.30;99.90;;;;;;5001824;28;20049;-88
2023/11/22 09:07:33;;;;;;;6.90;3.78;;;3.40;99.90;;;;;;4985059;28;20030;-86
2023/11/22 09:09:59;;;;;;;6.65;3.10;;;3.50;99.90;;;;;;4986017;28;20528;-91
2023/11/22 09:12:26;;;;;;;8.82;4.53;;;3.50;99.90;;;;;;5003753;28;20034;-87
2023/11/22 09:14:53;;;;;;;6.25;3.58;;;3.40;99.90;;;;;;5002454;28;20033;-91
2023/11/22 09:17:19;;;;;;;8.05;4.25;;;3.50;99.90;;;;;;4998180;28;20037;-91
2023/11/22 09:19:44;;;;;;;8.15;4.18;;;3.60;99.90;;;;;;4986432;28;20041;-89
2023/11/22 09:22:11;;;;;;;7.07;3.40;;;3.60;99.90;;;;;;5000211;28;20670;-87
2023/11/22 09:24:36;;;;;;;7.05;4.15;;;3.70;99.90;;;;;;5002303;28;20034;-91
2023/11/22 09:27:05;;;;;;;6.82;3.97;;;3.70;99.90;;;;;;5004987;28;20079;-91
2023/11/22 09:29:32;;;;;;;7.72;4.45;;;3.80;99.90;;;;;;4985577;28;20038;-86
2023/11/22 09:32:00;;;;;;;7.22;4.35;;;3.90;99.90;;;;;;5016441;28;20042;-91
2023/11/22 09:34:26;;;;;;;6.03;3.78;;;3.90;99.90;;;;;;5002404;28;20025;-88
2023/11/22 09:36:52;;;;;;;8.57;4.75;;;3.90;99.90;;;;;;5001667;28;20804;-91
2023/11/22 09:39:21;;;;;;;7.22;3.60;;;4.00;99.90;;;;;;5001843;28;20046;-89
2023/11/22 09:41:48;;;;;;;7.53;3.97;;;4.00;99.90;;;;;;4999547;28;20023;-85
2023/11/22 09:44:16;;;;;;;7.05;3.97;;;4.10;99.90;;;;;;5000736;28;20116;-86
2023/11/22 09:46:42;;;;;;;6.65;4.20;;;4.20;99.90;;;;;;4981429;28;20114;-87
2023/11/22 09:49:14;;;;;;;6.38;4.00;;;4.20;99.90;;;;;;5003596;28;20030;-87
2023/11/22 09:51:43;;;;;;;6.75;4.15;;;4.30;99.90;;;;;;5002491;28;20096;-87
2023/11/22 09:54:14;;;;;;;6.05;3.67;;;4.40;99.90;;;;;;4984870;28;20073;-89
2023/11/22 09:56:41;;;;;;;7.10;4.60;;;4.50;99.90;;;;;;4986947;28;20559;-87
2023/11/22 09:59:08;;;;;;;6.60;4.15;;;4.50;99.90;;;;;;4998569;28;20236;-86
2023/11/22 10:01:36;;;;;;;6.70;3.38;;;4.40;99.90;;;;;;4997802;28;20073;-90
2023/11/22 10:04:05;;;;;;;6.78;3.47;;;4.60;99.90;;;;;;4996903;28;20038;-85
2023/11/22 10:06:34;;;;;;;7.03;3.50;;;4.50;99.90;;;;;;5007155;28;20077;-85
2023/11/22 10:09:02;;;;;;;5.78;3.75;;;4.60;99.90;;;;;;5003779;28;20026;-86
2023/11/22 10:11:29;;;;;;;7.28;4.55;;;4.60;99.90;;;;;;4987616;28;20033;-86
2023/11/22 10:13:57;;;;;;;7.45;4.10;;;4.50;99.90;;;;;;4987958;28;20026;-87
2023/11/22 10:16:23;;;;;;;6.80;4.22;;;4.60;99.90;;;;;;5005630;28;20030;-87
2023/11/22 10:18:49;;;;;;;7.97;4.80;;;4.60;99.90;;;;;;4987932;28;20037;-88
2023/11/22 10:21:24;;;;;;;6.88;4.30;;;4.70;99.90;;;;;;4987325;28;20038;-87
2023/11/22 10:23:56;;;;;;;7.03;4.68;;;4.70;99.90;;;;;;5007367;28;20120;-86
2023/11/22 10:26:23;;;;;;;7.90;4.75;;;4.80;99.90;;;;;;5007029;28;20026;-87
2023/11/22 10:28:53;;;;;;;7.22;4.53;;;4.70;99.90;;;;;;5002624;28;20034;-87
2023/11/22 10:31:21;;;;;;;7.90;5.07;;;4.80;99.90;;;;;;4986167;28;20030;-88
2023/11/22 10:33:47;;;;;;;7.28;4.80;;;4.80;99.90;;;;;;4986168;28;20056;-87
2023/11/22 10:36:14;;;;;;;7.40;5.35;;;4.90;99.90;;;;;;5004285;28;20466;-87
2023/11/22 10:38:41;;;;;;;8.48;4.75;;;4.90;99.90;;;;;;4986809;28;20038;-87
2023/11/22 10:41:08;;;;;;;8.93;4.80;;;4.90;99.90;;;;;;5006205;28;20033;-88
2023/11/22 10:43:35;;;;;;;8.82;5.25;;;5.10;99.90;;;;;;4987516;28;20084;-88
2023/11/22 10:46:09;;;;;;;7.63;4.38;;;5.00;99.90;;;;;;5005394;28;20026;-89
2023/11/22 10:48:36;;;;;;;7.07;4.22;;;5.20;99.90;;;;;;4986970;28;20034;-88
2023/11/22 10:51:04;;;;;;;6.22;3.47;;;5.20;99.90;;;;;;4989594;28;20482;-89
2023/11/22 10:53:38;;;;;;;8.32;5.47;;;5.20;99.90;;;;;;4988610;28;20112;-88
2023/11/22 10:56:15;;;;;;;6.50;3.88;;;5.20;99.90;;;;;;4988125;28;20030;-87
2023/11/22 10:58:52;;;;;;;6.70;4.43;;;5.20;99.90;;;;;;5000390;28;20042;-89
2023/11/22 11:01:23;;;;;;;5.53;3.88;;;5.20;99.90;;;;;;4988248;28;20018;-88
2023/11/22 11:04:06;;;;;;;8.35;5.07;;;5.20;99.90;;;;;;4988443;28;20490;-86
2023/11/22 11:06:34;;;;;;;7.55;4.55;;;5.30;99.90;;;;;;5004128;28;20052;-86
2023/11/22 11:09:05;;;;;;;6.80;3.97;;;5.30;99.90;;;;;;5005878;28;20072;-86
2023/11/22 11:11:33;;;;;;;7.97;4.38;;;5.30;99.90;;;;;;5017917;28;20030;-86
2023/11/22 11:14:00;;;;;;;7.45;4.07;;;5.20;99.90;;;;;;4986915;28;20029;-88
2023/11/22 11:16:26;;;;;;;6.55;4.55;;;5.20;99.90;;;;;;4981970;28;20094;-86
2023/11/22 11:18:53;;;;;;;7.97;5.05;;;5.30;99.90;;;;;;5004809;28;20042;-87
2023/11/22 11:21:19;;;;;;;9.00;5.72;;;5.30;99.90;;;;;;4987723;28;20053;-89
2023/11/22 11:23:45;;;;;;;8.63;5.75;;;5.20;99.90;;;;;;4988416;28;20072;-86
2023/11/22 11:26:22;;;;;;;8.70;5.45;;;5.30;99.90;;;;;;4989746;28;20018;-86
2023/11/22 11:28:51;;;;;;;10.18;6.80;;;5.30;99.90;;;;;;5017878;28;20036;-86
2023/11/22 11:31:20;;;;;;;7.60;4.67;;;5.40;99.90;;;;;;4984508;28;20079;-86
2023/11/22 11:33:53;;;;;;;10.23;6.65;;;5.60;99.90;;;;;;5005006;28;20289;-85
2023/11/22 11:36:26;;;;;;;7.35;5.45;;;5.50;99.90;;;;;;5003536;28;20463;-86
2023/11/22 11:38:56;;;;;;;9.63;6.47;;;5.70;99.90;;;;;;5003823;28;20061;-86
2023/11/22 11:41:30;;;;;;;10.00;6.88;;;5.80;99.90;;;;;;4983490;28;20021;-86
2023/11/22 11:43:57;;;;;;;8.38;5.65;;;5.70;99.90;;;;;;5004845;28;20054;-87
2023/11/22 11:46:23;;;;;;;11.05;7.30;;;5.60;99.90;;;;;;4985334;28;20038;-88
2023/11/22 11:48:53;;;;;;;12.02;7.72;;;5.40;99.90;;;;;;4986845;28;20116;-86
2023/11/22 11:51:22;;;;;;;13.50;8.50;;;5.40;99.90;;;;;;4989361;28;20034;-86
2023/11/22 11:53:48;;;;;;;14.45;7.88;;;5.30;99.90;;;;;;5003915;28;20542;-86
2023/11/22 11:56:15;;;;;;;10.90;7.32;;;5.30;99.90;;;;;;4988756;28;20571;-86
2023/11/22 11:58:52;;;;;;;10.75;6.97;;;5.40;99.90;;;;;;4986795;28;20347;-86
2023/11/22 12:01:20;;;;;;;8.63;6.03;;;5.60;99.90;;;;;;5004434;28;20430;-86
2023/11/22 12:03:46;;;;;;;9.55;5.70;;;5.60;99.90;;;;;;5005985;28;20037;-86
2023/11/22 12:06:16;;;;;;;9.15;5.47;;;5.70;99.90;;;;;;4987985;28;20073;-86
2023/11/22 12:08:42;;;;;;;;;;;5.80;99.90;;;;;;5001836;28;20065;-85
2023/11/22 12:11:08;;;;;;;11.68;6.63;;;5.80;99.90;;;;;;5006364;28;19951;-85
2023/11/22 12:13:34;;;;;;;8.38;5.13;;;6.00;99.90;;;;;;5002942;28;20029;-86
2023/11/22 12:16:03;;;;;;;10.60;6.40;;;6.10;99.90;;;;;;4986168;28;20037;-85
2023/11/22 12:18:29;;;;;;;12.48;7.68;;;5.90;99.90;;;;;;5006813;28;20045;-87
2023/11/22 12:20:59;;;;;;;13.32;8.80;;;5.80;99.90;;;;;;4987346;28;20046;-86
2023/11/22 12:23:27;;;;;;;;;;;5.70;99.90;;;;;;4989543;28;20466;-86
2023/11/22 12:26:01;;;;;;;12.30;7.20;;;5.80;99.90;;;;;;4987400;28;20396;-87
2023/11/22 12:28:27;;;;;;;13.93;7.57;;;5.80;99.90;;;;;;5002424;28;20037;-84
2023/11/22 12:30:53;;;;;;;12.57;8.05;;;5.70;99.90;;;;;;4988308;28;20026;-86
2023/11/22 12:33:19;;;;;;;13.23;7.90;;;5.80;99.90;;;;;;4987845;28;20466;-88
2023/11/22 12:35:49;;;;;;;12.98;7.30;;;5.80;99.90;;;;;;4985986;28;20025;-85
2023/11/22 12:38:16;;;;;;;15.03;9.53;;;5.80;99.90;;;;;;4999601;28;20067;-86
2023/11/22 12:40:48;;;;;;;14.60;8.77;;;5.80;99.90;;;;;;5004267;28;20371;-87
2023/11/22 12:43:14;;;;;;;14.90;9.18;;;5.90;99.90;;;;;;4985029;28;22552;-85
2023/11/22 12:45:40;;;;;;;14.05;8.20;;;5.80;99.90;;;;;;4984321;28;20040;-84
2023/11/22 12:48:23;;;;;;;15.57;8.60;;;5.80;99.90;;;;;;5001301;28;20034;-85
2023/11/22 12:50:50;;;;;;;17.13;10.05;;;5.80;99.90;;;;;;5004003;28;20168;-85
2023/11/22 12:53:16;;;;;;;16.17;9.07;;;5.80;99.90;;;;;;4979685;28;20026;-86
2023/11/22 12:55:48;;;;;;;19.63;12.35;;;5.80;99.90;;;;;;5013738;28;20093;-86